• Join FlightAware (Why Join?)
  • Login
  • US Flag 
04:28PM EDT


 

Airport Tracker/Info


-or-


 

Live Flight TrackerFlight Track Log ✈ EGF4373 ✈ 11-Jun-2013 ✈ KCMI - KORD

Flight Track Log - Related Links

Times and Time Zones

All times are in EDT time to prevent confusion due to time zone crossing. See the EGF4373 flight status page for this flight to view local times or setup timezone preferences in your user account.

Time Position Orientation Groundspeed Altitude Reporting Facility
EDT Latitude Longitude Course Direction KTS MPH feet Rate Location/Type
09:51AM 40.1178 -88.3278 337° Northwest 184 212 4,000  Level Chicago Center
09:52AM 40.2444 -88.3866 335° Northwest  Level FlightAware Approximate
09:52AM 40.1753 -88.3656 333° Northwest 231 266 5,900  Level Chicago Center
09:53AM 40.3140 -88.4269 346° North  Level FlightAware Approximate
09:53AM 40.2392 -88.3986 338° Northwest 250 288 8,100  Level Chicago Center
09:54AM 40.3830 -88.4706 330° Northwest  Level FlightAware Approximate
09:54AM 40.3169 -88.4433 336° Northwest 255 293 10,600  Level Chicago Center
09:55AM 40.4534 -88.5114 337° Northwest  Level FlightAware Approximate
09:55AM 40.3875 -88.4833 337° Northwest 268 308 11,900  Level Chicago Center
09:56AM 40.5266 -88.5533 337° Northwest  Level FlightAware Approximate
09:56AM 40.4661 -88.5286 336° Northwest 298 343 13,300  Level Chicago Center
09:57AM 40.5450 -88.5736 337° Northwest 307 353 14,900 1,200 Climbing Chicago Center
09:58AM 40.6247 -88.6183 337° Northwest 312 359 15,800 480 Climbing Chicago Center
09:59AM 40.7139 -88.6719 336° Northwest 346 398 15,900  Climbing Chicago Center
10:00AM 40.8214 -88.7317 337° Northwest 349 402 15,900  Level Chicago Center
10:01AM 40.9231 -88.7203 North 370 426 15,900 -180 Level Chicago Center
10:02AM 41.0244 -88.7014 North 368 423 15,600 -840 Descending Chicago Center
10:03AM 41.1289 -88.6853 North 374 430 14,200 -1,440 Descending Chicago Center
10:04AM 41.2292 -88.6714 North 365 420 12,700 -1,500 Descending Chicago Center
10:05AM 41.3453 -88.6536 North 350 403 11,200 -840 Descending Chicago Center
10:06AM 41.4247 -88.5717 38° Northeast 362 417 11,000 -120 Descending Chicago Center
10:07AM 41.4989 -88.4833 42° Northeast 358 412 11,000  Level Chicago Center
10:08AM 41.5750 -88.3931 42° Northeast 363 418 11,000  Level Chicago Center
10:09AM 41.6519 -88.3031 41° Northeast 365 420 11,000  Level Chicago Center
10:10AM 41.7294 -88.2111 42° Northeast 368 423 11,000 -180 Level Chicago Center
10:12AM 41.7978 -88.1289 42° Northeast 322 371 10,700 -1,320 Descending Chicago Center
10:13AM 41.8714 -88.0411 42° Northeast 292 336 8,300 -1,980 Descending Chicago Center
10:13AM 41.9000 -88.0000 47° Northeast 289 333 7,700 -900 Descending Chicago TRACON
10:14AM 41.9500 -87.9333 45° Northeast 251 289 7,000 -360 Descending Chicago TRACON
10:15AM 42.0000 -87.8500 51° Northeast 279 321 7,000  Level Chicago TRACON
10:16AM 42.0186 -87.8164 53° Northeast 260 299 7,000 -840 Level Chicago Center
10:17AM 42.0519 -87.7386 60° Northeast 244 281 5,700 -1,020 Descending Chicago Center
10:18AM 42.0686 -87.6364 78° East 241 277 4,900 -1,020 Descending Chicago Center
10:19AM 42.0183 -87.6289 174° South 228 262 3,700 -1,200 Descending Chicago Center